Time;durP1;ratioP1;P1;durP2;ratioP2;P2;SDS_P1;SDS_P2;PMS_P1;PMS_P2;Temp;Humidity;BMP_temperature;BMP_pressure;BME280_temperature;BME280_humidity;BME280_pressure;Samples;Min_cycle;Max_cycle;Signal;HPM_P1;HPM_P2
2021/06/04 00:01:16;;;;;;;1.95;1.83;;;15.60;99.90;;;;;;5110133;28;20692;-74
2021/06/04 00:03:43;;;;;;;0.40;0.30;;;15.60;99.90;;;;;;5091734;28;20160;-74
2021/06/04 00:06:10;;;;;;;0.73;0.73;;;15.50;99.90;;;;;;5110091;28;20195;-74
2021/06/04 00:08:37;;;;;;;0.95;0.80;;;15.50;99.90;;;;;;5091496;28;20205;-74
2021/06/04 00:11:02;;;;;;;0.47;0.40;;;15.50;99.90;;;;;;5109954;28;20209;-74
2021/06/04 00:14:00;;;;;;;0.88;0.88;;;15.40;99.90;;;;;;5091622;28;20612;-74
2021/06/04 00:16:51;;;;;;;0.60;0.55;;;15.40;99.90;;;;;;5084468;28;20211;-74
2021/06/04 00:19:21;;;;;;;0.30;0.30;;;15.30;99.90;;;;;;5066003;28;20255;-74
2021/06/04 00:21:55;;;;;;;1.02;1.02;;;15.30;99.90;;;;;;5095887;28;20252;-74
2021/06/04 00:24:21;;;;;;;1.13;1.13;;;15.30;99.90;;;;;;5089068;28;20159;-74
2021/06/04 00:26:49;;;;;;;3.83;1.27;;;15.30;99.90;;;;;;5088728;28;20246;-74
2021/06/04 00:29:16;;;;;;;3.08;1.27;;;15.30;99.90;;;;;;5089163;28;20187;-73
2021/06/04 00:31:45;;;;;;;1.00;1.00;;;15.30;99.90;;;;;;5089276;28;20178;-74
2021/06/04 00:34:13;;;;;;;0.35;0.35;;;15.30;99.90;;;;;;5089252;28;20168;-73
2021/06/04 00:36:41;;;;;;;2.25;1.67;;;15.30;99.90;;;;;;5088052;28;20237;-73
2021/06/04 00:39:08;;;;;;;0.73;0.73;;;15.30;99.90;;;;;;5089075;28;20188;-74
2021/06/04 00:41:44;;;;;;;0.40;0.40;;;15.20;99.90;;;;;;5071114;28;20628;-74
2021/06/04 00:44:10;;;;;;;0.75;0.75;;;15.20;99.90;;;;;;5088829;28;20160;-74
2021/06/04 00:46:36;;;;;;;1.35;0.77;;;15.20;99.90;;;;;;5089056;28;20168;-74
2021/06/04 00:49:03;;;;;;;0.63;0.63;;;15.20;99.90;;;;;;5088895;28;20238;-73
2021/06/04 00:51:51;;;;;;;1.75;1.67;;;15.20;99.90;;;;;;5088951;28;20163;-73
2021/06/04 00:54:19;;;;;;;6.70;2.13;;;15.10;99.90;;;;;;5089002;28;20160;-73
2021/06/04 00:56:47;;;;;;;0.65;0.65;;;15.10;99.90;;;;;;5088878;28;20174;-73
2021/06/04 00:59:24;;;;;;;1.08;0.98;;;15.10;99.90;;;;;;5088932;28;20160;-73
2021/06/04 01:01:50;;;;;;;1.30;1.30;;;15.00;99.90;;;;;;5088935;28;20201;-73
2021/06/04 01:04:19;;;;;;;0.45;0.45;;;14.90;99.90;;;;;;5088884;28;20156;-73
2021/06/04 01:06:53;;;;;;;0.57;0.57;;;14.90;99.90;;;;;;5088864;28;20190;-73
2021/06/04 01:10:04;;;;;;;0.32;0.32;;;15.00;99.90;;;;;;5088782;28;20187;-73
2021/06/04 01:12:51;;;;;;;0.45;0.45;;;15.00;99.90;;;;;;5084683;28;20184;-73
2021/06/04 01:15:24;;;;;;;2.17;1.98;;;15.00;99.90;;;;;;5102633;28;20187;-73
2021/06/04 01:18:10;;;;;;;0.63;0.63;;;14.80;99.90;;;;;;5108896;28;20190;-73
2021/06/04 01:20:44;;;;;;;4.80;1.58;;;14.80;99.90;;;;;;5086783;28;20248;-73
2021/06/04 01:23:46;;;;;;;1.38;1.27;;;14.80;99.90;;;;;;5090118;28;20185;-73
2021/06/04 01:26:35;;;;;;;1.33;1.23;;;14.80;99.90;;;;;;5108913;28;20190;-73
2021/06/04 01:29:29;;;;;;;0.85;0.60;;;14.70;99.90;;;;;;5108702;28;20206;-73
2021/06/04 01:31:59;;;;;;;0.73;0.73;;;14.50;99.90;;;;;;5108920;28;20155;-74
2021/06/04 01:34:28;;;;;;;0.57;0.57;;;14.40;99.90;;;;;;5108904;28;20185;-74
2021/06/04 01:36:58;;;;;;;0.40;0.40;;;14.40;99.90;;;;;;5092137;28;20228;-74
2021/06/04 01:39:33;;;;;;;0.85;0.85;;;14.40;99.90;;;;;;5112929;28;20249;-73
2021/06/04 01:42:02;;;;;;;3.90;0.75;;;14.40;99.90;;;;;;5094603;28;20167;-73
2021/06/04 01:44:38;;;;;;;1.60;1.25;;;14.40;99.90;;;;;;5094150;28;20287;-73
2021/06/04 01:47:12;;;;;;;1.38;1.27;;;14.50;99.90;;;;;;5112727;28;20205;-74
2021/06/04 01:49:42;;;;;;;0.40;0.40;;;14.40;99.90;;;;;;5112662;28;20232;-74
2021/06/04 01:52:31;;;;;;;3.10;1.83;;;14.40;99.90;;;;;;5094312;28;20193;-73
2021/06/04 01:55:28;;;;;;;1.13;1.08;;;14.50;99.90;;;;;;5112540;28;20158;-74
2021/06/04 01:58:04;;;;;;;0.73;0.73;;;14.50;99.90;;;;;;5109076;28;20293;-73
2021/06/04 02:00:32;;;;;;;0.50;0.50;;;14.50;99.90;;;;;;5112505;28;20160;-73
2021/06/04 02:02:59;;;;;;;0.63;0.63;;;14.50;99.90;;;;;;5112552;28;20160;-73
2021/06/04 02:05:32;;;;;;;0.38;0.38;;;14.50;99.90;;;;;;5112437;28;20174;-74
2021/06/04 02:08:00;;;;;;;1.75;0.75;;;14.40;99.90;;;;;;5112295;28;20267;-73
2021/06/04 02:10:33;;;;;;;0.88;0.50;;;14.40;99.90;;;;;;5112221;28;20544;-73
2021/06/04 02:12:59;;;;;;;0.88;0.88;;;14.40;99.90;;;;;;5093902;28;20175;-74
2021/06/04 02:15:30;;;;;;;0.88;0.88;;;14.40;99.90;;;;;;5112160;28;20226;-73
2021/06/04 02:18:08;;;;;;;1.15;1.00;;;14.40;99.90;;;;;;5112606;28;20194;-73
2021/06/04 02:20:44;;;;;;;4.57;1.38;;;14.40;99.90;;;;;;5112101;28;20181;-73
2021/06/04 02:23:25;;;;;;;1.25;1.23;;;14.40;99.90;;;;;;5111956;28;20166;-73
2021/06/04 02:26:06;;;;;;;3.60;1.00;;;14.40;99.90;;;;;;5093776;28;20164;-73
2021/06/04 02:28:41;;;;;;;1.08;0.38;;;14.50;99.90;;;;;;5111864;28;20226;-73
2021/06/04 02:31:22;;;;;;;0.95;0.95;;;14.40;99.90;;;;;;5111989;28;20612;-73
2021/06/04 02:34:24;;;;;;;0.10;0.10;;;14.40;99.90;;;;;;5111678;28;20158;-73
2021/06/04 02:37:04;;;;;;;1.63;1.52;;;14.40;99.90;;;;;;5111216;28;20200;-73
2021/06/04 02:39:40;;;;;;;1.17;0.95;;;14.40;99.90;;;;;;5111730;28;20167;-73
2021/06/04 02:42:06;;;;;;;1.67;0.60;;;14.40;99.90;;;;;;5111655;28;20164;-73
2021/06/04 02:44:52;;;;;;;2.60;1.80;;;14.40;99.90;;;;;;5111703;28;20515;-73
2021/06/04 02:47:24;;;;;;;0.63;0.63;;;14.30;99.90;;;;;;5111736;28;20259;-73
2021/06/04 02:49:50;;;;;;;0.57;0.57;;;14.30;99.90;;;;;;5110841;28;20225;-73
2021/06/04 02:52:28;;;;;;;1.52;1.42;;;14.20;99.90;;;;;;5093469;28;20163;-73
2021/06/04 02:54:54;;;;;;;0.35;0.35;;;14.20;99.90;;;;;;5111702;28;20532;-73
2021/06/04 02:57:25;;;;;;;1.45;0.68;;;14.20;99.90;;;;;;5093273;28;20202;-73
2021/06/04 02:59:52;;;;;;;1.35;1.33;;;14.20;99.90;;;;;;5111593;28;20152;-73
2021/06/04 03:02:25;;;;;;;1.10;1.10;;;14.20;99.90;;;;;;5093366;28;20216;-73
2021/06/04 03:04:55;;;;;;;1.40;1.30;;;14.20;99.90;;;;;;5111565;28;20167;-73
2021/06/04 03:07:27;;;;;;;1.65;1.55;;;14.20;99.90;;;;;;5093045;28;20218;-73
2021/06/04 03:09:55;;;;;;;0.60;0.60;;;14.20;99.90;;;;;;5111267;28;20211;-73
2021/06/04 03:12:26;;;;;;;0.52;0.52;;;14.10;99.90;;;;;;5111393;28;20152;-73
2021/06/04 03:14:56;;;;;;;1.40;1.40;;;14.20;99.90;;;;;;5111187;28;20163;-73
2021/06/04 03:17:26;;;;;;;0.45;0.35;;;14.20;99.90;;;;;;5110873;28;20242;-73
2021/06/04 03:19:52;;;;;;;1.15;0.77;;;14.20;99.90;;;;;;5110589;28;20180;-74
2021/06/04 03:22:37;;;;;;;0.85;0.85;;;14.30;99.90;;;;;;5110917;28;20250;-73
2021/06/04 03:25:16;;;;;;;1.45;1.35;;;14.20;99.90;;;;;;5111070;28;20229;-73
2021/06/04 03:27:44;;;;;;;1.05;1.05;;;14.20;99.90;;;;;;5110737;28;20216;-73
2021/06/04 03:30:11;;;;;;;0.75;0.75;;;14.20;99.90;;;;;;5110979;28;20191;-74
2021/06/04 03:32:37;;;;;;;1.35;0.40;;;14.20;99.90;;;;;;5111022;28;20155;-74
2021/06/04 03:35:06;;;;;;;0.47;0.47;;;14.20;99.90;;;;;;5092596;28;20168;-73
2021/06/04 03:37:32;;;;;;;0.77;0.77;;;14.20;99.90;;;;;;5110793;28;20609;-73
2021/06/04 03:39:58;;;;;;;0.70;0.68;;;14.30;99.90;;;;;;5110873;28;20640;-74
2021/06/04 03:42:30;;;;;;;0.70;0.70;;;14.40;99.90;;;;;;5110855;28;20167;-74
2021/06/04 03:44:56;;;;;;;1.58;1.48;;;14.40;99.90;;;;;;5110441;28;20271;-73
2021/06/04 03:47:23;;;;;;;6.55;1.17;;;14.50;99.90;;;;;;5092021;28;20206;-74
2021/06/04 03:49:49;;;;;;;1.50;1.42;;;14.60;99.90;;;;;;5110297;28;20195;-73
2021/06/04 03:52:21;;;;;;;0.90;0.90;;;14.70;99.90;;;;;;5092175;28;20204;-74
2021/06/04 03:54:51;;;;;;;2.03;1.77;;;14.80;99.90;;;;;;5110644;28;20166;-73
2021/06/04 03:57:39;;;;;;;3.15;0.70;;;15.10;99.90;;;;;;5092052;28;20198;-73
2021/06/04 04:00:13;;;;;;;3.10;1.33;;;15.40;99.90;;;;;;5109649;28;20341;-74
2021/06/04 04:02:39;;;;;;;0.88;0.88;;;15.70;99.90;;;;;;5110054;28;20230;-74
2021/06/04 04:05:06;;;;;;;1.15;1.15;;;16.00;99.90;;;;;;5092189;28;20266;-73
2021/06/04 04:07:32;;;;;;;1.52;1.42;;;16.30;99.90;;;;;;5110228;28;20191;-74
2021/06/04 04:09:58;;;;;;;0.75;0.75;;;16.60;99.90;;;;;;5091711;28;20715;-74
2021/06/04 04:12:26;;;;;;;0.68;0.68;;;16.80;99.90;;;;;;5110296;28;20209;-74
2021/06/04 04:14:53;;;;;;;0.75;0.75;;;17.10;99.90;;;;;;5091865;28;20178;-74
2021/06/04 04:17:21;;;;;;;0.80;0.80;;;17.10;99.90;;;;;;5109759;28;20183;-74
2021/06/04 04:19:47;;;;;;;1.92;1.77;;;17.60;99.90;;;;;;5110004;28;20215;-74
2021/06/04 04:22:13;;;;;;;2.15;1.35;;;18.10;99.90;;;;;;5109996;28;20183;-74
2021/06/04 04:24:40;;;;;;;10.38;1.23;;;18.10;99.90;;;;;;5110021;28;20707;-74
2021/06/04 04:27:08;;;;;;;1.33;1.23;;;18.10;99.90;;;;;;5091516;28;20237;-74
2021/06/04 04:29:35;;;;;;;1.30;1.20;;;18.50;99.90;;;;;;5109649;28;20203;-74
2021/06/04 04:32:11;;;;;;;0.88;0.88;;;18.80;99.90;;;;;;5109817;28;20156;-74
2021/06/04 04:34:38;;;;;;;1.67;1.10;;;18.90;99.90;;;;;;5109837;28;20155;-74
2021/06/04 04:37:05;;;;;;;2.33;1.80;;;19.20;99.90;;;;;;5091185;28;20253;-74
2021/06/04 04:39:35;;;;;;;1.45;1.35;;;19.80;99.90;;;;;;5109740;28;20194;-73
2021/06/04 04:42:02;;;;;;;0.60;0.57;;;19.80;99.90;;;;;;5109703;28;20160;-73
2021/06/04 04:44:32;;;;;;;1.45;1.35;;;19.50;99.90;;;;;;5109416;28;20155;-73
2021/06/04 04:46:59;;;;;;;1.38;1.27;;;19.20;99.90;;;;;;5109501;28;20160;-73
2021/06/04 04:49:26;;;;;;;1.50;1.20;;;19.20;99.90;;;;;;5109308;28;20191;-73
2021/06/04 04:51:52;;;;;;;1.13;0.77;;;18.90;99.90;;;;;;5109000;28;20186;-73
2021/06/04 04:54:19;;;;;;;2.67;1.90;;;19.00;99.90;;;;;;5097102;28;20175;-74
2021/06/04 04:56:47;;;;;;;1.33;0.98;;;19.00;99.90;;;;;;5079839;28;20167;-74
2021/06/04 04:59:14;;;;;;;2.08;1.17;;;19.00;99.90;;;;;;5099076;28;20226;-74
2021/06/04 05:01:41;;;;;;;1.23;0.80;;;19.40;99.90;;;;;;5103145;28;20219;-74
2021/06/04 05:04:08;;;;;;;4.43;1.33;;;19.80;99.90;;;;;;5079443;28;20238;-74
2021/06/04 05:06:35;;;;;;;2.20;0.95;;;20.60;99.90;;;;;;5098677;28;20163;-74
2021/06/04 05:09:04;;;;;;;0.50;0.50;;;20.60;99.90;;;;;;5097297;28;20298;-74
2021/06/04 05:11:30;;;;;;;0.90;0.90;;;20.60;99.90;;;;;;5099538;28;20246;-74
2021/06/04 05:13:55;;;;;;;11.60;1.02;;;20.40;99.90;;;;;;5087588;28;20187;-73
2021/06/04 05:16:22;;;;;;;2.50;1.55;;;20.50;99.90;;;;;;5105008;28;20219;-73
2021/06/04 05:18:47;;;;;;;0.85;0.85;;;20.80;99.90;;;;;;5104885;28;20211;-73
2021/06/04 05:21:16;;;;;;;1.73;1.27;;;21.30;99.90;;;;;;5106054;28;20186;-73
2021/06/04 05:23:42;;;;;;;1.35;1.25;;;21.10;99.90;;;;;;5085852;28;20195;-73
2021/06/04 05:26:08;;;;;;;1.20;1.10;;;22.00;99.90;;;;;;5106453;28;20162;-73
2021/06/04 05:28:35;;;;;;;0.88;0.88;;;22.50;99.90;;;;;;5104482;28;20236;-74
2021/06/04 05:31:08;;;;;;;0.70;0.70;;;22.30;99.90;;;;;;5095279;28;20151;-73
2021/06/04 05:33:37;;;;;;;1.00;1.00;;;22.80;99.90;;;;;;5077223;28;20227;-73
2021/06/04 05:36:08;;;;;;;0.73;0.73;;;21.90;99.90;;;;;;5095336;28;20158;-73
2021/06/04 05:38:33;;;;;;;1.27;1.27;;;22.10;99.90;;;;;;5077283;28;20194;-73
2021/06/04 05:41:00;;;;;;;2.17;1.55;;;22.20;99.90;;;;;;5095454;28;20208;-74
2021/06/04 05:43:29;;;;;;;0.77;0.77;;;22.80;99.90;;;;;;5076689;28;20175;-73
2021/06/04 05:45:56;;;;;;;1.38;1.13;;;22.80;99.90;;;;;;5095193;28;20207;-73
2021/06/04 05:48:24;;;;;;;1.45;1.35;;;23.60;99.90;;;;;;5095184;28;20247;-73
2021/06/04 05:50:55;;;;;;;1.00;0.82;;;24.10;99.90;;;;;;5095340;28;20155;-73
2021/06/04 05:53:28;;;;;;;0.50;0.50;;;24.20;99.90;;;;;;5106062;28;20178;-73
2021/06/04 05:55:55;;;;;;;1.25;1.15;;;24.90;99.90;;;;;;5115056;28;20174;-73
2021/06/04 05:58:22;;;;;;;1.35;1.23;;;25.40;99.90;;;;;;5115096;28;20179;-73
2021/06/04 06:00:51;;;;;;;1.00;0.95;;;25.30;99.90;;;;;;5097175;28;20239;-73
2021/06/04 06:03:21;;;;;;;1.15;0.65;;;25.70;99.90;;;;;;5115533;28;20212;-73
2021/06/04 06:05:47;;;;;;;0.82;0.82;;;24.50;99.90;;;;;;5115433;28;20159;-73
2021/06/04 06:08:13;;;;;;;1.38;1.00;;;25.50;99.90;;;;;;5115086;28;20190;-73
2021/06/04 06:10:40;;;;;;;1.63;1.50;;;26.60;99.90;;;;;;5115363;28;20194;-73
2021/06/04 06:13:06;;;;;;;2.05;1.35;;;26.80;99.90;;;;;;5114680;28;20163;-73
2021/06/04 06:15:33;;;;;;;0.82;0.82;;;28.00;99.90;;;;;;5096786;28;20163;-73
2021/06/04 06:17:59;;;;;;;1.00;1.00;;;28.40;99.90;;;;;;5085674;28;20248;-73
2021/06/04 06:20:29;;;;;;;1.90;1.77;;;27.50;99.90;;;;;;5098591;28;20178;-73
2021/06/04 06:22:56;;;;;;;0.60;0.60;;;26.00;99.90;;;;;;5113809;28;20182;-73
2021/06/04 06:25:44;;;;;;;3.33;1.27;;;25.30;99.90;;;;;;5111804;28;20163;-73
2021/06/04 06:28:13;;;;;;;2.63;1.40;;;25.00;99.90;;;;;;5111592;28;20194;-73
2021/06/04 06:30:39;;;;;;;1.10;1.02;;;24.30;99.90;;;;;;5093637;28;20190;-73
2021/06/04 06:33:05;;;;;;;1.98;0.95;;;24.20;99.90;;;;;;5093627;28;20248;-73
2021/06/04 06:35:38;;;;;;;0.68;0.60;;;24.80;99.90;;;;;;5111585;28;20157;-73
2021/06/04 06:38:06;;;;;;;3.28;1.30;;;25.30;99.90;;;;;;5093469;28;20216;-73
2021/06/04 06:40:32;;;;;;;0.43;0.43;;;26.50;99.90;;;;;;5111707;28;20159;-73
2021/06/04 06:42:59;;;;;;;1.00;1.00;;;27.00;99.90;;;;;;5111814;28;20155;-73
2021/06/04 06:45:26;;;;;;;0.70;0.50;;;27.60;99.90;;;;;;5111315;28;20217;-73
2021/06/04 06:47:54;;;;;;;1.60;1.38;;;28.10;99.90;;;;;;5092996;28;20197;-73
2021/06/04 06:50:22;;;;;;;1.45;0.75;;;28.90;99.90;;;;;;5111455;28;20212;-73
2021/06/04 06:52:49;;;;;;;1.90;1.58;;;28.80;99.90;;;;;;5111554;28;20167;-73
2021/06/04 06:55:15;;;;;;;0.47;0.47;;;28.20;99.90;;;;;;5111502;28;20159;-73
2021/06/04 06:57:41;;;;;;;1.50;1.40;;;28.40;99.90;;;;;;5111334;28;20249;-73
2021/06/04 07:00:17;;;;;;;0.85;0.85;;;28.60;99.90;;;;;;5111159;28;20159;-73
2021/06/04 07:02:44;;;;;;;0.75;0.75;;;28.20;99.90;;;;;;5111343;28;20170;-73
2021/06/04 07:05:10;;;;;;;1.85;1.33;;;28.10;99.90;;;;;;5111483;28;20211;-73
2021/06/04 07:07:39;;;;;;;0.77;0.77;;;28.20;99.90;;;;;;5111265;28;20186;-73
2021/06/04 07:10:09;;;;;;;1.38;1.27;;;28.70;99.90;;;;;;5110961;28;20190;-73
2021/06/04 07:12:36;;;;;;;0.95;0.95;;;28.90;99.90;;;;;;5111093;28;20155;-73
2021/06/04 07:15:02;;;;;;;0.88;0.57;;;28.40;99.90;;;;;;5111064;28;20170;-73
2021/06/04 07:17:30;;;;;;;7.50;1.42;;;28.00;99.90;;;;;;5109845;28;20187;-73
2021/06/04 07:19:56;;;;;;;0.68;0.68;;;27.70;99.90;;;;;;5110872;28;20234;-73
2021/06/04 07:22:22;;;;;;;1.65;1.33;;;27.40;99.90;;;;;;5110759;28;20178;-73
2021/06/04 07:24:48;;;;;;;2.13;0.75;;;27.50;99.90;;;;;;5110619;28;20170;-73
2021/06/04 07:27:14;;;;;;;1.88;1.77;;;27.90;99.90;;;;;;5110841;28;20194;-73
2021/06/04 07:29:42;;;;;;;0.90;0.90;;;28.60;99.90;;;;;;5088742;28;20289;-72
2021/06/04 07:32:08;;;;;;;1.58;0.85;;;28.70;99.90;;;;;;5090502;28;20151;-72
2021/06/04 07:34:34;;;;;;;1.80;1.63;;;27.60;99.90;;;;;;5089967;28;20160;-72
2021/06/04 07:37:01;;;;;;;0.55;0.55;;;28.00;99.90;;;;;;5101578;28;20178;-72
2021/06/04 07:39:31;;;;;;;0.57;0.55;;;29.70;99.90;;;;;;5110687;28;20166;-73
2021/06/04 07:41:59;;;;;;;1.35;1.25;;;30.40;99.90;;;;;;5110657;28;20161;-73
2021/06/04 07:44:25;;;;;;;1.58;1.20;;;31.20;99.90;;;;;;5110328;28;20147;-72
2021/06/04 07:46:53;;;;;;;2.45;1.58;;;30.10;99.90;;;;;;5110280;28;20246;-72
2021/06/04 07:49:20;;;;;;;1.65;1.25;;;28.80;99.90;;;;;;5110360;28;20303;-73
2021/06/04 07:51:50;;;;;;;1.05;0.80;;;29.20;99.90;;;;;;5110390;28;20148;-74
2021/06/04 07:54:19;;;;;;;3.17;1.40;;;30.00;99.90;;;;;;5110042;28;20573;-73
2021/06/04 07:56:46;;;;;;;2.28;0.88;;;29.90;99.90;;;;;;5110193;28;20522;-73
2021/06/04 07:59:12;;;;;;;1.60;1.20;;;28.90;99.90;;;;;;5110116;28;20265;-73
2021/06/04 08:01:40;;;;;;;1.27;1.17;;;28.80;99.90;;;;;;5110147;28;20155;-72
2021/06/04 08:04:07;;;;;;;1.17;0.93;;;29.40;99.90;;;;;;5110417;28;20529;-73
2021/06/04 08:06:33;;;;;;;2.05;1.45;;;29.70;99.90;;;;;;5110117;28;20151;-73
2021/06/04 08:08:59;;;;;;;0.68;0.68;;;29.30;99.90;;;;;;5109769;28;20198;-73
2021/06/04 08:11:29;;;;;;;1.27;1.00;;;29.10;99.90;;;;;;5091891;28;20200;-73
2021/06/04 08:13:58;;;;;;;1.55;1.00;;;29.20;99.90;;;;;;5109939;28;20147;-73
2021/06/04 08:16:25;;;;;;;1.42;1.08;;;28.60;99.90;;;;;;5091092;28;20508;-73
2021/06/04 08:18:52;;;;;;;4.47;2.15;;;28.30;99.90;;;;;;5090809;28;20203;-73
2021/06/04 08:21:32;;;;;;;3.22;1.45;;;28.40;99.90;;;;;;5087263;28;20193;-73
2021/06/04 08:23:59;;;;;;;1.25;1.15;;;28.00;99.90;;;;;;5089111;28;20164;-72
2021/06/04 08:26:30;;;;;;;1.73;1.63;;;28.30;99.90;;;;;;5089406;28;20218;-72
2021/06/04 08:28:56;;;;;;;1.55;1.17;;;29.10;99.90;;;;;;5103610;28;20194;-73
2021/06/04 08:31:24;;;;;;;0.70;0.70;;;29.30;99.90;;;;;;5108949;28;20155;-72
2021/06/04 08:33:50;;;;;;;2.55;1.65;;;29.80;99.90;;;;;;5109433;28;20146;-72
2021/06/04 08:36:20;;;;;;;0.98;0.90;;;30.10;99.90;;;;;;5109765;28;20271;-72
2021/06/04 08:38:47;;;;;;;0.85;0.52;;;29.50;99.90;;;;;;5109124;28;20155;-72
2021/06/04 08:41:40;;;;;;;0.65;0.65;;;29.20;99.90;;;;;;5109296;28;20189;-72
2021/06/04 08:44:35;;;;;;;0.93;0.88;;;29.30;99.90;;;;;;5109404;28;20210;-72
2021/06/04 08:47:16;;;;;;;0.82;0.82;;;29.30;99.90;;;;;;5090553;28;20175;-72
2021/06/04 08:49:54;;;;;;;1.10;1.10;;;28.70;99.90;;;;;;5109138;28;20528;-72
2021/06/04 08:52:27;;;;;;;0.95;0.82;;;28.80;99.90;;;;;;5109154;28;20210;-72
2021/06/04 08:54:59;;;;;;;0.57;0.57;;;29.00;99.90;;;;;;5109332;28;20194;-72
2021/06/04 08:57:50;;;;;;;2.00;1.67;;;29.80;99.90;;;;;;5109398;28;20192;-72
2021/06/04 09:00:29;;;;;;;0.95;0.93;;;30.20;99.90;;;;;;5108110;28;20190;-72
2021/06/04 09:03:06;;;;;;;1.15;1.05;;;31.40;99.90;;;;;;5090558;28;20224;-72
2021/06/04 09:05:54;;;;;;;0.93;0.93;;;31.40;99.90;;;;;;5109157;28;20178;-72
2021/06/04 09:08:34;;;;;;;11.45;1.00;;;31.00;99.90;;;;;;5108978;28;20170;-71
2021/06/04 09:11:18;;;;;;;0.90;0.90;;;30.80;99.90;;;;;;5109098;28;20195;-72
2021/06/04 09:13:44;;;;;;;1.15;1.05;;;31.80;99.90;;;;;;5109004;28;20217;-72
2021/06/04 09:16:13;;;;;;;1.08;0.77;;;32.00;99.90;;;;;;5107701;28;20151;-72
2021/06/04 09:18:55;;;;;;;0.95;0.80;;;31.50;99.90;;;;;;5109100;28;20185;-72
2021/06/04 09:21:36;;;;;;;0.80;0.80;;;30.70;99.90;;;;;;5108932;28;20198;-72
2021/06/04 09:24:07;;;;;;;0.80;0.80;;;31.50;99.90;;;;;;5109063;28;20525;-72
2021/06/04 09:26:34;;;;;;;0.90;0.80;;;31.70;99.90;;;;;;5108772;28;20147;-72
2021/06/04 09:29:03;;;;;;;1.13;0.85;;;31.40;99.90;;;;;;5107201;28;20230;-72
2021/06/04 09:31:34;;;;;;;1.60;1.50;;;31.50;99.90;;;;;;5108373;28;20187;-72
2021/06/04 09:34:17;;;;;;;0.40;0.40;;;31.90;99.90;;;;;;5090792;28;20244;-72
2021/06/04 09:36:55;;;;;;;2.63;0.73;;;32.90;99.90;;;;;;5108456;28;20151;-72
2021/06/04 09:39:40;;;;;;;1.75;1.23;;;33.00;99.90;;;;;;5108600;28;20169;-72
2021/06/04 09:42:18;;;;;;;2.80;1.08;;;33.20;99.90;;;;;;5090325;28;20191;-72
2021/06/04 09:45:01;;;;;;;1.02;0.93;;;32.90;99.90;;;;;;5108491;28;20218;-72
2021/06/04 09:47:46;;;;;;;8.75;4.10;;;32.40;99.90;;;;;;5108903;28;20167;-72
2021/06/04 09:50:42;;;;;;;1.20;1.08;;;32.70;99.90;;;;;;5108522;28;20193;-72
2021/06/04 09:53:12;;;;;;;1.23;1.08;;;32.70;99.90;;;;;;5108720;28;20193;-72
2021/06/04 09:55:41;;;;;;;1.17;1.08;;;32.80;99.90;;;;;;5108618;28;20193;-72
2021/06/04 09:58:14;;;;;;;10.45;1.05;;;33.60;99.90;;;;;;5110288;28;20498;-72
2021/06/04 10:01:03;;;;;;;1.00;0.95;;;33.20;99.90;;;;;;5112501;28;20159;-72
2021/06/04 10:03:41;;;;;;;0.95;0.88;;;33.00;99.90;;;;;;5112107;28;20159;-72
2021/06/04 10:06:07;;;;;;;1.27;1.00;;;33.50;99.90;;;;;;5112397;28;20163;-72
2021/06/04 10:08:48;;;;;;;2.88;1.98;;;33.50;99.90;;;;;;5112289;28;20159;-72
2021/06/04 10:11:16;;;;;;;1.35;1.25;;;32.60;99.90;;;;;;5093942;28;20194;-72
2021/06/04 10:13:50;;;;;;;1.20;1.10;;;31.70;99.90;;;;;;5111948;28;20158;-72
2021/06/04 10:19:23;;;;;;;2.53;1.23;;;30.80;99.90;;;;;;5112173;28;20158;-72
2021/06/04 10:22:06;;;;;;;0.80;0.80;;;31.10;99.90;;;;;;5089618;28;20246;-72
2021/06/04 10:24:36;;;;;;;1.13;1.02;;;31.70;99.90;;;;;;5092408;28;20189;-72
2021/06/04 10:27:07;;;;;;;1.15;1.10;;;32.50;99.90;;;;;;5111598;28;20266;-72
2021/06/04 10:29:34;;;;;;;1.17;1.08;;;33.00;99.90;;;;;;5111699;28;20182;-72
2021/06/04 10:32:31;;;;;;;0.93;0.93;;;32.90;99.90;;;;;;5110360;28;20201;-72
2021/06/04 10:35:10;;;;;;;1.30;0.82;;;31.50;99.90;;;;;;5093053;28;20213;-72
2021/06/04 10:37:58;;;;;;;0.85;0.80;;;30.00;99.90;;;;;;5112016;28;20515;-72
2021/06/04 10:41:09;;;;;;;0.75;0.75;;;30.40;99.90;;;;;;5111828;28;20647;-72
2021/06/04 10:43:50;;;;;;;0.77;0.63;;;31.20;99.90;;;;;;5111418;28;20197;-72
2021/06/04 10:46:28;;;;;;;1.75;1.45;;;32.30;99.90;;;;;;5111474;28;20230;-73
2021/06/04 10:49:03;;;;;;;1.50;1.27;;;31.20;99.90;;;;;;5111742;28;20243;-73
2021/06/04 10:51:53;;;;;;;0.68;0.65;;;31.10;99.90;;;;;;5111553;28;20242;-73
2021/06/04 10:54:47;;;;;;;0.50;0.50;;;30.20;99.90;;;;;;5111369;28;20237;-73
2021/06/04 10:57:41;;;;;;;1.67;1.42;;;31.00;99.90;;;;;;5111514;28;20159;-73
2021/06/04 11:00:25;;;;;;;0.98;0.85;;;31.40;99.90;;;;;;5111081;28;20265;-73
2021/06/04 11:03:14;;;;;;;1.48;1.38;;;31.60;99.90;;;;;;5111175;28;20201;-73
2021/06/04 11:05:58;;;;;;;1.15;0.75;;;32.20;99.90;;;;;;5092570;28;20225;-72
2021/06/04 11:08:42;;;;;;;1.05;0.95;;;31.50;99.90;;;;;;5111074;28;20226;-73
2021/06/04 11:11:20;;;;;;;0.90;0.90;;;32.10;99.90;;;;;;5111092;28;20229;-73
2021/06/04 11:14:24;;;;;;;1.30;1.30;;;32.30;99.90;;;;;;5092903;28;20208;-72
2021/06/04 11:17:11;;;;;;;1.63;0.82;;;32.50;99.90;;;;;;5095042;28;20210;-73
2021/06/04 11:19:43;;;;;;;0.73;0.73;;;33.70;99.90;;;;;;5111127;28;20180;-72
2021/06/04 11:22:14;;;;;;;1.02;0.98;;;34.00;99.50;;;;;;5089301;28;20207;-73
2021/06/04 11:25:03;;;;;;;4.13;1.38;;;32.60;99.90;;;;;;5090754;28;20171;-72
2021/06/04 11:27:36;;;;;;;17.38;2.28;;;30.90;99.90;;;;;;5074732;28;20171;-72
2021/06/04 11:30:08;;;;;;;1.35;1.00;;;28.60;99.90;;;;;;5110672;28;20182;-72
2021/06/04 11:32:55;;;;;;;1.50;1.40;;;27.80;99.90;;;;;;5110909;28;20186;-72
2021/06/04 11:35:26;;;;;;;0.60;0.60;;;27.30;99.90;;;;;;5092885;28;20615;-73
2021/06/04 11:38:10;;;;;;;2.50;1.55;;;27.90;99.90;;;;;;5092235;28;20159;-72
2021/06/04 11:40:44;;;;;;;1.77;1.67;;;29.10;99.90;;;;;;5092720;28;20269;-73
2021/06/04 11:43:13;;;;;;;1.42;1.10;;;30.00;99.90;;;;;;5110745;28;20218;-72
2021/06/04 11:45:41;;;;;;;1.52;1.05;;;30.30;99.90;;;;;;5110572;28;20221;-72
2021/06/04 11:48:28;;;;;;;1.10;0.93;;;31.10;99.90;;;;;;5110638;28;20155;-72
2021/06/04 11:51:18;;;;;;;1.88;1.40;;;31.80;99.90;;;;;;5079846;28;20227;-72
2021/06/04 11:53:50;;;;;;;1.73;1.38;;;31.20;99.90;;;;;;5090152;28;20159;-72
2021/06/04 11:56:37;;;;;;;1.17;1.00;;;30.80;99.90;;;;;;5079363;28;20694;-72
2021/06/04 11:59:05;;;;;;;1.42;1.33;;;31.30;99.90;;;;;;5092164;28;20159;-72
2021/06/04 12:01:45;;;;;;;1.23;1.13;;;30.80;99.90;;;;;;5110404;28;20155;-72
2021/06/04 12:04:18;;;;;;;1.40;1.30;;;32.10;99.90;;;;;;5110341;28;20178;-72
2021/06/04 12:07:05;;;;;;;0.95;0.85;;;32.50;99.90;;;;;;5092183;28;20191;-72
2021/06/04 12:09:31;;;;;;;1.08;1.00;;;31.70;99.90;;;;;;5110200;28;20183;-72
2021/06/04 12:12:15;;;;;;;3.70;1.23;;;31.60;99.90;;;;;;5109966;28;20169;-72
2021/06/04 12:15:02;;;;;;;0.75;0.75;;;31.80;99.90;;;;;;5109960;28;20178;-72
2021/06/04 12:17:29;;;;;;;3.90;1.30;;;30.40;99.90;;;;;;5109492;28;20205;-72
2021/06/04 12:20:22;;;;;;;0.60;0.55;;;28.90;99.90;;;;;;5091912;28;20189;-72
2021/06/04 12:22:59;;;;;;;0.75;0.55;;;28.20;99.90;;;;;;5081467;28;20256;-73
2021/06/04 12:25:43;;;;;;;0.77;0.77;;;27.30;99.90;;;;;;5071589;28;20168;-72
2021/06/04 12:28:17;;;;;;;0.80;0.80;;;26.60;99.90;;;;;;5096848;28;20257;-72
2021/06/04 12:30:57;;;;;;;0.95;0.95;;;26.70;99.90;;;;;;5109888;28;20216;-72
2021/06/04 12:33:34;;;;;;;0.57;0.57;;;27.30;99.90;;;;;;5091528;28;20165;-73
2021/06/04 12:36:01;;;;;;;1.27;1.17;;;27.60;99.90;;;;;;5109655;28;20182;-72
2021/06/04 12:38:34;;;;;;;1.50;0.73;;;27.50;99.90;;;;;;5109585;28;20182;-72
2021/06/04 12:41:03;;;;;;;3.15;1.27;;;27.50;99.90;;;;;;5091277;28;20227;-72
2021/06/04 12:43:32;;;;;;;2.58;0.95;;;27.60;99.90;;;;;;5091245;28;20388;-72
2021/06/04 12:46:19;;;;;;;1.33;1.23;;;27.40;99.90;;;;;;5087680;28;20219;-72
2021/06/04 12:48:56;;;;;;;0.98;0.90;;;26.90;99.90;;;;;;5089074;28;20156;-73
2021/06/04 12:51:22;;;;;;;0.73;0.43;;;26.60;99.90;;;;;;5087967;28;20159;-72
2021/06/04 12:53:51;;;;;;;0.80;0.80;;;26.90;99.90;;;;;;5087832;28;20168;-72
2021/06/04 12:56:23;;;;;;;1.20;1.05;;;27.10;99.90;;;;;;5087638;28;20241;-72
2021/06/04 12:59:11;;;;;;;0.40;0.40;;;27.10;99.90;;;;;;5089221;28;20212;-72
2021/06/04 13:01:55;;;;;;;0.98;0.98;;;27.20;99.90;;;;;;5088819;28;20158;-72
2021/06/04 13:04:27;;;;;;;0.60;0.60;;;27.00;99.90;;;;;;5087750;28;20164;-72
2021/06/04 13:06:55;;;;;;;0.68;0.68;;;26.60;99.90;;;;;;5088989;28;20197;-72
2021/06/04 13:09:24;;;;;;;1.33;1.00;;;26.50;99.90;;;;;;5088901;28;20180;-72
2021/06/04 13:11:51;;;;;;;0.65;0.65;;;26.40;99.90;;;;;;5088987;28;20607;-72
2021/06/04 13:14:30;;;;;;;0.70;0.70;;;26.30;99.90;;;;;;5087334;28;20231;-73
2021/06/04 13:17:29;;;;;;;1.35;0.93;;;26.20;99.90;;;;;;5087525;28;20186;-72
2021/06/04 13:20:32;;;;;;;0.30;0.30;;;26.20;99.90;;;;;;5088873;28;20168;-72